Expo Clipper — WDD8769 — position and weather

sailwx.info

Track history (hours):
 
Tides and Currents Weather Stations Pressure Air Temp Water Temp Dewpoint Dewpoint Depression Visibility Wind Speed Wind Dir Waves Ship Positions

Expo Clipper

Owner: Expoships LLLP, Bonita Springs, FL. More information available from US FCC via Universal Licensing System and Coast Guard Vessel Documentation Center.

Last reported at 2018-Jun-18 17:48 UTC. Time now 2018-Jun-19 14:27 UTC.
Position N 33°37' W 118°20'.

Length 31 m.

Type: Passenger vessel. MMSI: 367302530.

Date/timePositionNaut miles runAvg speedWind from/ knotsBaromVisibWave heightAir tempDewpointWater temp
2018-Jun-18 17:48N 33°37' W 118°20'3 8.9
2018-Jun-18 17:30N 33°39' W 118°18'4 8.1
2018-Jun-18 17:01N 33°43' W 118°15'2 3.0
2018-Jun-18 16:30N 33°44' W 118°16'0 0.0
2018-Jun-18 16:00N 33°44' W 118°16'  
2018-Jun-15 22:00N 33°44' W 118°16'2 3.7
2018-Jun-15 21:31N 33°43' W 118°15'5 9.0
2018-Jun-15 21:00N 33°39' W 118°19'4 9.2
2018-Jun-15 20:30N 33°36' W 118°23'5 9.0
2018-Jun-15 20:00N 33°32' W 118°26'6 1.7
2018-Jun-15 16:19N 33°27' W 118°30'0 0.0
2018-Jun-15 12:58N 33°27' W 118°30'0 0.1
2018-Jun-15 12:30N 33°27' W 118°30'0 0.0
2018-Jun-15 07:04N 33°27' W 118°30'0 0.0
2018-Jun-15 06:15N 33°27' W 118°30'0 0.0
2018-Jun-15 05:59N 33°27' W 118°30'0 0.0
2018-Jun-15 01:59N 33°27' W 118°30'0 0.0
2018-Jun-15 01:13N 33°27' W 118°30'0 0.0
2018-Jun-15 01:00N 33°27' W 118°30'0 0.0
2018-Jun-15 00:30N 33°27' W 118°30'0 0.0
2018-Jun-15 00:00N 33°27' W 118°30'0 0.0
2018-Jun-14 23:26N 33°27' W 118°30'0 0.2
2018-Jun-14 23:00N 33°27' W 118°30'0 0.0
2018-Jun-14 22:30N 33°27' W 118°30'0 0.0
2018-Jun-14 21:58N 33°27' W 118°30'0 0.0
2018-Jun-14 21:11N 33°27' W 118°30'0 0.0
2018-Jun-14 21:00N 33°27' W 118°30'0 0.0
2018-Jun-14 20:13N 33°27' W 118°30'0 0.0
2018-Jun-14 20:00N 33°27' W 118°30'0 0.0
2018-Jun-14 18:09N 33°27' W 118°30'0 0.2
2018-Jun-14 17:49N 33°27' W 118°30'0 0.1
2018-Jun-14 17:20N 33°27' W 118°30'0 0.1
2018-Jun-14 16:51N 33°27' W 118°30'0 0.0
2018-Jun-14 15:37N 33°27' W 118°30'0 0.0
2018-Jun-14 15:22N 33°27' W 118°30'0 0.1
2018-Jun-14 14:39N 33°27' W 118°30'0 0.0
2018-Jun-14 14:15N 33°27' W 118°30'0 0.2
2018-Jun-14 14:00N 33°27' W 118°30'0 0.0
2018-Jun-14 13:30N 33°27' W 118°30'0 0.1
2018-Jun-14 13:00N 33°27' W 118°30'0 0.0
2018-Jun-14 12:29N 33°27' W 118°30'0 0.1
2018-Jun-14 11:55N 33°27' W 118°30'0 0.0
2018-Jun-14 10:10N 33°27' W 118°30'0 0.0
2018-Jun-14 09:41N 33°27' W 118°30'0 0.0
2018-Jun-14 09:30N 33°27' W 118°30'0 0.0
2018-Jun-14 09:00N 33°27' W 118°30'0 0.0
2018-Jun-14 08:28N 33°27' W 118°30'0 0.1
2018-Jun-14 07:55N 33°27' W 118°30'0 0.0
2018-Jun-14 07:28N 33°27' W 118°30'0 0.0
2018-Jun-14 06:53N 33°27' W 118°30'0 0.0
2018-Jun-14 06:15N 33°27' W 118°30'0 0.0
2018-Jun-14 05:58N 33°27' W 118°30'0 0.0
2018-Jun-14 05:28N 33°27' W 118°30'0 0.0
2018-Jun-14 05:00N 33°27' W 118°30'0 0.0
2018-Jun-14 04:30N 33°27' W 118°30'0 0.1
2018-Jun-14 04:00N 33°27' W 118°30'0 0.1
2018-Jun-14 03:28N 33°27' W 118°30'0 0.0
2018-Jun-14 02:57N 33°27' W 118°30'0 0.0
2018-Jun-14 02:23N 33°27' W 118°30'0 0.0
2018-Jun-14 01:58N 33°27' W 118°30'0 0.0
2018-Jun-14 01:28N 33°27' W 118°30'0 0.1
2018-Jun-14 00:58N 33°27' W 118°30'0 0.1
2018-Jun-14 00:30N 33°27' W 118°30'0 0.0
2018-Jun-14 00:00N 33°27' W 118°30'0 0.0
2018-Jun-13 23:03N 33°27' W 118°30'0 0.0
2018-Jun-13 23:00N 33°27' W 118°30'0 0.0
2018-Jun-13 22:30N 33°27' W 118°30'0 0.0
2018-Jun-13 21:56N 33°27' W 118°30'0 0.0
2018-Jun-13 21:30N 33°27' W 118°30'0 0.0
2018-Jun-13 21:00N 33°27' W 118°30'0 0.0
2018-Jun-13 20:29N 33°27' W 118°30'0 0.1
2018-Jun-13 19:58N 33°27' W 118°30'0 0.2
2018-Jun-13 19:29N 33°27' W 118°30'0 0.0
2018-Jun-13 19:00N 33°27' W 118°30'0 0.1
2018-Jun-13 18:30N 33°27' W 118°30'0 0.0
2018-Jun-13 17:54N 33°27' W 118°30'0 0.1
2018-Jun-13 17:26N 33°27' W 118°30'0 0.0
2018-Jun-13 17:00N 33°27' W 118°30'0 0.0
2018-Jun-13 16:26N 33°27' W 118°30'0 0.0
2018-Jun-13 15:59N 33°27' W 118°30'0 0.0
2018-Jun-13 15:28N 33°27' W 118°30'0 0.0
2018-Jun-13 14:52N 33°27' W 118°30'0 0.1
2018-Jun-13 14:27N 33°27' W 118°30'0 0.0
2018-Jun-13 11:58N 33°27' W 118°30'0 0.1
2018-Jun-13 11:28N 33°27' W 118°30'0 0.1
2018-Jun-13 10:59N 33°27' W 118°30'0 0.0
2018-Jun-13 10:21N 33°27' W 118°30'0 0.0
2018-Jun-13 09:58N 33°27' W 118°30'0 0.1
2018-Jun-13 09:05N 33°27' W 118°30'0 0.0
2018-Jun-13 08:46N 33°27' W 118°30'0 0.1
2018-Jun-13 08:13N 33°27' W 118°30'0 0.0
2018-Jun-13 08:00N 33°27' W 118°30'0 0.0
2018-Jun-13 06:17N 33°27' W 118°30'0 0.0
2018-Jun-13 05:57N 33°27' W 118°30'0 0.0
2018-Jun-13 05:29N 33°27' W 118°30'0 0.0
2018-Jun-13 04:59N 33°27' W 118°30'0 0.0
2018-Jun-13 04:30N 33°27' W 118°30'0 0.0
2018-Jun-13 04:00N 33°27' W 118°30'0 0.0
2018-Jun-13 02:21N 33°27' W 118°30'0 0.0
2018-Jun-13 02:00N 33°27' W 118°30'0 0.0
2018-Jun-13 01:29N 33°27' W 118°30'0 0.1
2018-Jun-13 01:00N 33°27' W 118°30'0 0.0
2018-Jun-13 00:26N 33°27' W 118°30'0 0.1
2018-Jun-13 00:00N 33°27' W 118°30'0 0.0
2018-Jun-12 23:27N 33°27' W 118°30'0 0.0
2018-Jun-12 23:00N 33°27' W 118°30'0 0.0
2018-Jun-12 22:30N 33°27' W 118°30'0 0.1
2018-Jun-12 21:59N 33°27' W 118°30'0 0.1
2018-Jun-12 21:31N 33°27' W 118°30'0 0.0
2018-Jun-12 21:00N 33°27' W 118°30'0 0.1
2018-Jun-12 20:29N 33°27' W 118°30'0 0.0
2018-Jun-12 19:57N 33°27' W 118°30'0 0.0
2018-Jun-12 19:09N 33°27' W 118°30'0 0.0
2018-Jun-12 19:00N 33°27' W 118°30'0 0.1
2018-Jun-12 18:28N 33°27' W 118°30'0 0.0
2018-Jun-12 17:17N 33°27' W 118°30'0 0.1
2018-Jun-12 14:54N 33°27' W 118°30'3 7.9
2018-Jun-12 14:30N 33°29' W 118°27'5 9.3
2018-Jun-12 14:00N 33°33' W 118°23'5 9.3
2018-Jun-12 13:30N 33°36' W 118°20'5 9.3
2018-Jun-12 13:00N 33°40' W 118°17'3 6.8
2018-Jun-12 12:30N 33°44' W 118°16'1 1.5
2018-Jun-12 12:00N 33°44' W 118°16'0 0.0
2018-Jun-12 11:30N 33°44' W 118°16'0 0.0
2018-Jun-11 22:15N 33°44' W 118°16'0 0.0
2018-Jun-11 22:00N 33°44' W 118°16'0 0.3
2018-Jun-11 21:30N 33°44' W 118°16'2 3.9
2018-Jun-11 21:00N 33°43' W 118°14'3 6.4
2018-Jun-11 20:28N 33°45' W 118°10'1 2.8
2018-Jun-11 20:01N 33°45' W 118°09'1 1.3
2018-Jun-11 19:30N 33°45' W 118°09'3 5.9
2018-Jun-11 19:00N 33°43' W 118°12'3 6.7
2018-Jun-11 18:30N 33°43' W 118°16'1 0.1
2018-Jun-11 01:22N 33°44' W 118°16'1 2.0
2018-Jun-11 01:00N 33°44' W 118°16'1 1.2
2018-Jun-11 00:30N 33°44' W 118°16'0 0.0
2018-Jun-11 00:00N 33°44' W 118°16'1 1.4
2018-Jun-10 23:30N 33°43' W 118°16'1 0.0
2018-Jun-09 19:59N 33°44' W 118°16'0 1.0
2018-Jun-09 19:30N 33°44' W 118°16'4 8.8
2018-Jun-09 19:00N 33°39' W 118°16'5 9.8
2018-Jun-09 18:30N 33°35' W 118°17'5 9.7
2018-Jun-09 17:59N 33°30' W 118°18'9 2.8
2018-Jun-09 14:57N 33°21' W 118°20'0 0.0
2018-Jun-09 14:29N 33°21' W 118°20'0 0.0
2018-Jun-09 13:59N 33°21' W 118°20'0 0.0
2018-Jun-09 12:23N 33°21' W 118°20'0 0.0
2018-Jun-09 12:00N 33°21' W 118°20'0 0.0
2018-Jun-09 11:29N 33°21' W 118°20'0 0.0
2018-Jun-09 10:58N 33°21' W 118°20'0 0.0
2018-Jun-09 10:30N 33°21' W 118°20'0 0.0
2018-Jun-09 09:25N 33°21' W 118°20'0 0.0
2018-Jun-09 08:59N 33°21' W 118°20'0 0.0
2018-Jun-09 07:40N 33°21' W 118°20'0 0.0
2018-Jun-09 07:20N 33°21' W 118°20'0 0.0
2018-Jun-09 06:36N 33°21' W 118°20'0 0.0
2018-Jun-09 06:21N 33°21' W 118°20'0 0.0
2018-Jun-09 05:51N 33°21' W 118°20'0 0.0
2018-Jun-09 03:52N 33°21' W 118°20'0 0.1
2018-Jun-09 03:24N 33°21' W 118°20'0 0.0
2018-Jun-09 01:52N 33°21' W 118°20'0 0.0
2018-Jun-09 01:17N 33°21' W 118°20'0 0.0
2018-Jun-09 01:00N 33°21' W 118°20'0 0.0
2018-Jun-08 23:36N 33°21' W 118°20'0 0.0
2018-Jun-08 23:17N 33°21' W 118°20'0 0.2
2018-Jun-08 22:55N 33°21' W 118°20'0 0.1
2018-Jun-08 22:19N 33°21' W 118°20'0 0.0
2018-Jun-08 21:59N 33°21' W 118°20'0 0.0
2018-Jun-08 20:41N 33°21' W 118°20'0 0.2
2018-Jun-08 20:27N 33°21' W 118°20'0 0.0
2018-Jun-08 20:00N 33°21' W 118°20'0 0.1
2018-Jun-08 19:30N 33°21' W 118°20'0 0.1
2018-Jun-08 19:00N 33°21' W 118°20'0 0.0
2018-Jun-08 18:25N 33°21' W 118°20'  
Track history (hours):
 
Tides and Currents Weather Stations Pressure Air Temp Water Temp Dewpoint Dewpoint Depression Visibility Wind Speed Wind Dir Waves Ship Positions

Expo Clipper

Owner: Expoships LLLP, Bonita Springs, FL. More information available from US FCC via Universal Licensing System and Coast Guard Vessel Documentation Center.

Last reported at 2018-Jun-18 17:48 UTC. Time now 2018-Jun-19 14:27 UTC.
Position N 33°37' W 118°20'.

Length 31 m.

Type: Passenger vessel. MMSI: 367302530.

Date/timePositionNaut miles runAvg speedWind from/ knotsBaromVisibWave heightAir tempDewpointWater temp
2018-Jun-18 17:48N 33°37' W 118°20'3 8.9
2018-Jun-18 17:30N 33°39' W 118°18'4 8.1
2018-Jun-18 17:01N 33°43' W 118°15'2 3.0
2018-Jun-18 16:30N 33°44' W 118°16'0 0.0
2018-Jun-18 16:00N 33°44' W 118°16'  
2018-Jun-15 22:00N 33°44' W 118°16'2 3.7
2018-Jun-15 21:31N 33°43' W 118°15'5 9.0
2018-Jun-15 21:00N 33°39' W 118°19'4 9.2
2018-Jun-15 20:30N 33°36' W 118°23'5 9.0
2018-Jun-15 20:00N 33°32' W 118°26'6 1.7
2018-Jun-15 16:19N 33°27' W 118°30'0 0.0
2018-Jun-15 12:58N 33°27' W 118°30'0 0.1
2018-Jun-15 12:30N 33°27' W 118°30'0 0.0
2018-Jun-15 07:04N 33°27' W 118°30'0 0.0
2018-Jun-15 06:15N 33°27' W 118°30'0 0.0
2018-Jun-15 05:59N 33°27' W 118°30'0 0.0
2018-Jun-15 01:59N 33°27' W 118°30'0 0.0
2018-Jun-15 01:13N 33°27' W 118°30'0 0.0
2018-Jun-15 01:00N 33°27' W 118°30'0 0.0
2018-Jun-15 00:30N 33°27' W 118°30'0 0.0
2018-Jun-15 00:00N 33°27' W 118°30'0 0.0
2018-Jun-14 23:26N 33°27' W 118°30'0 0.2
2018-Jun-14 23:00N 33°27' W 118°30'0 0.0
2018-Jun-14 22:30N 33°27' W 118°30'0 0.0
2018-Jun-14 21:58N 33°27' W 118°30'0 0.0
2018-Jun-14 21:11N 33°27' W 118°30'0 0.0
2018-Jun-14 21:00N 33°27' W 118°30'0 0.0
2018-Jun-14 20:13N 33°27' W 118°30'0 0.0
2018-Jun-14 20:00N 33°27' W 118°30'0 0.0
2018-Jun-14 18:09N 33°27' W 118°30'0 0.2
2018-Jun-14 17:49N 33°27' W 118°30'0 0.1
2018-Jun-14 17:20N 33°27' W 118°30'0 0.1
2018-Jun-14 16:51N 33°27' W 118°30'0 0.0
2018-Jun-14 15:37N 33°27' W 118°30'0 0.0
2018-Jun-14 15:22N 33°27' W 118°30'0 0.1
2018-Jun-14 14:39N 33°27' W 118°30'0 0.0
2018-Jun-14 14:15N 33°27' W 118°30'0 0.2
2018-Jun-14 14:00N 33°27' W 118°30'0 0.0
2018-Jun-14 13:30N 33°27' W 118°30'0 0.1
2018-Jun-14 13:00N 33°27' W 118°30'0 0.0
2018-Jun-14 12:29N 33°27' W 118°30'0 0.1
2018-Jun-14 11:55N 33°27' W 118°30'0 0.0
2018-Jun-14 10:10N 33°27' W 118°30'0 0.0
2018-Jun-14 09:41N 33°27' W 118°30'0 0.0
2018-Jun-14 09:30N 33°27' W 118°30'0 0.0
2018-Jun-14 09:00N 33°27' W 118°30'0 0.0
2018-Jun-14 08:28N 33°27' W 118°30'0 0.1
2018-Jun-14 07:55N 33°27' W 118°30'0 0.0
2018-Jun-14 07:28N 33°27' W 118°30'0 0.0
2018-Jun-14 06:53N 33°27' W 118°30'0 0.0
2018-Jun-14 06:15N 33°27' W 118°30'0 0.0
2018-Jun-14 05:58N 33°27' W 118°30'0 0.0
2018-Jun-14 05:28N 33°27' W 118°30'0 0.0
2018-Jun-14 05:00N 33°27' W 118°30'0 0.0
2018-Jun-14 04:30N 33°27' W 118°30'0 0.1
2018-Jun-14 04:00N 33°27' W 118°30'0 0.1
2018-Jun-14 03:28N 33°27' W 118°30'0 0.0
2018-Jun-14 02:57N 33°27' W 118°30'0 0.0
2018-Jun-14 02:23N 33°27' W 118°30'0 0.0
2018-Jun-14 01:58N 33°27' W 118°30'0 0.0
2018-Jun-14 01:28N 33°27' W 118°30'0 0.1
2018-Jun-14 00:58N 33°27' W 118°30'0 0.1
2018-Jun-14 00:30N 33°27' W 118°30'0 0.0
2018-Jun-14 00:00N 33°27' W 118°30'0 0.0
2018-Jun-13 23:03N 33°27' W 118°30'0 0.0
2018-Jun-13 23:00N 33°27' W 118°30'0 0.0
2018-Jun-13 22:30N 33°27' W 118°30'0 0.0
2018-Jun-13 21:56N 33°27' W 118°30'0 0.0
2018-Jun-13 21:30N 33°27' W 118°30'0 0.0
2018-Jun-13 21:00N 33°27' W 118°30'0 0.0
2018-Jun-13 20:29N 33°27' W 118°30'0 0.1
2018-Jun-13 19:58N 33°27' W 118°30'0 0.2
2018-Jun-13 19:29N 33°27' W 118°30'0 0.0
2018-Jun-13 19:00N 33°27' W 118°30'0 0.1
2018-Jun-13 18:30N 33°27' W 118°30'0 0.0
2018-Jun-13 17:54N 33°27' W 118°30'0 0.1
2018-Jun-13 17:26N 33°27' W 118°30'0 0.0
2018-Jun-13 17:00N 33°27' W 118°30'0 0.0
2018-Jun-13 16:26N 33°27' W 118°30'0 0.0
2018-Jun-13 15:59N 33°27' W 118°30'0 0.0
2018-Jun-13 15:28N 33°27' W 118°30'0 0.0
2018-Jun-13 14:52N 33°27' W 118°30'0 0.1
2018-Jun-13 14:27N 33°27' W 118°30'0 0.0
2018-Jun-13 11:58N 33°27' W 118°30'0 0.1
2018-Jun-13 11:28N 33°27' W 118°30'0 0.1
2018-Jun-13 10:59N 33°27' W 118°30'0 0.0
2018-Jun-13 10:21N 33°27' W 118°30'0 0.0
2018-Jun-13 09:58N 33°27' W 118°30'0 0.1
2018-Jun-13 09:05N 33°27' W 118°30'0 0.0
2018-Jun-13 08:46N 33°27' W 118°30'0 0.1
2018-Jun-13 08:13N 33°27' W 118°30'0 0.0
2018-Jun-13 08:00N 33°27' W 118°30'0 0.0
2018-Jun-13 06:17N 33°27' W 118°30'0 0.0
2018-Jun-13 05:57N 33°27' W 118°30'0 0.0
2018-Jun-13 05:29N 33°27' W 118°30'0 0.0
2018-Jun-13 04:59N 33°27' W 118°30'0 0.0
2018-Jun-13 04:30N 33°27' W 118°30'0 0.0
2018-Jun-13 04:00N 33°27' W 118°30'0 0.0
2018-Jun-13 02:21N 33°27' W 118°30'0 0.0
2018-Jun-13 02:00N 33°27' W 118°30'0 0.0
2018-Jun-13 01:29N 33°27' W 118°30'0 0.1
2018-Jun-13 01:00N 33°27' W 118°30'0 0.0
2018-Jun-13 00:26N 33°27' W 118°30'0 0.1
2018-Jun-13 00:00N 33°27' W 118°30'0 0.0
2018-Jun-12 23:27N 33°27' W 118°30'0 0.0
2018-Jun-12 23:00N 33°27' W 118°30'0 0.0
2018-Jun-12 22:30N 33°27' W 118°30'0 0.1
2018-Jun-12 21:59N 33°27' W 118°30'0 0.1
2018-Jun-12 21:31N 33°27' W 118°30'0 0.0
2018-Jun-12 21:00N 33°27' W 118°30'0 0.1
2018-Jun-12 20:29N 33°27' W 118°30'0 0.0
2018-Jun-12 19:57N 33°27' W 118°30'0 0.0
2018-Jun-12 19:09N 33°27' W 118°30'0 0.0
2018-Jun-12 19:00N 33°27' W 118°30'0 0.1
2018-Jun-12 18:28N 33°27' W 118°30'0 0.0
2018-Jun-12 17:17N 33°27' W 118°30'0 0.1
2018-Jun-12 14:54N 33°27' W 118°30'3 7.9
2018-Jun-12 14:30N 33°29' W 118°27'5 9.3
2018-Jun-12 14:00N 33°33' W 118°23'5 9.3
2018-Jun-12 13:30N 33°36' W 118°20'5 9.3
2018-Jun-12 13:00N 33°40' W 118°17'3 6.8
2018-Jun-12 12:30N 33°44' W 118°16'1 1.5
2018-Jun-12 12:00N 33°44' W 118°16'0 0.0
2018-Jun-12 11:30N 33°44' W 118°16'0 0.0
2018-Jun-11 22:15N 33°44' W 118°16'0 0.0
2018-Jun-11 22:00N 33°44' W 118°16'0 0.3
2018-Jun-11 21:30N 33°44' W 118°16'2 3.9
2018-Jun-11 21:00N 33°43' W 118°14'3 6.4
2018-Jun-11 20:28N 33°45' W 118°10'1 2.8
2018-Jun-11 20:01N 33°45' W 118°09'1 1.3
2018-Jun-11 19:30N 33°45' W 118°09'3 5.9
2018-Jun-11 19:00N 33°43' W 118°12'3 6.7
2018-Jun-11 18:30N 33°43' W 118°16'1 0.1
2018-Jun-11 01:22N 33°44' W 118°16'1 2.0
2018-Jun-11 01:00N 33°44' W 118°16'1 1.2
2018-Jun-11 00:30N 33°44' W 118°16'0 0.0
2018-Jun-11 00:00N 33°44' W 118°16'1 1.4
2018-Jun-10 23:30N 33°43' W 118°16'1 0.0
2018-Jun-09 19:59N 33°44' W 118°16'0 1.0
2018-Jun-09 19:30N 33°44' W 118°16'4 8.8
2018-Jun-09 19:00N 33°39' W 118°16'5 9.8
2018-Jun-09 18:30N 33°35' W 118°17'5 9.7
2018-Jun-09 17:59N 33°30' W 118°18'9 2.8
2018-Jun-09 14:57N 33°21' W 118°20'0 0.0
2018-Jun-09 14:29N 33°21' W 118°20'0 0.0
2018-Jun-09 13:59N 33°21' W 118°20'0 0.0
2018-Jun-09 12:23N 33°21' W 118°20'0 0.0
2018-Jun-09 12:00N 33°21' W 118°20'0 0.0
2018-Jun-09 11:29N 33°21' W 118°20'0 0.0
2018-Jun-09 10:58N 33°21' W 118°20'0 0.0
2018-Jun-09 10:30N 33°21' W 118°20'0 0.0
2018-Jun-09 09:25N 33°21' W 118°20'0 0.0
2018-Jun-09 08:59N 33°21' W 118°20'0 0.0
2018-Jun-09 07:40N 33°21' W 118°20'0 0.0
2018-Jun-09 07:20N 33°21' W 118°20'0 0.0
2018-Jun-09 06:36N 33°21' W 118°20'0 0.0
2018-Jun-09 06:21N 33°21' W 118°20'0 0.0
2018-Jun-09 05:51N 33°21' W 118°20'0 0.0
2018-Jun-09 03:52N 33°21' W 118°20'0 0.1
2018-Jun-09 03:24N 33°21' W 118°20'0 0.0
2018-Jun-09 01:52N 33°21' W 118°20'0 0.0
2018-Jun-09 01:17N 33°21' W 118°20'0 0.0
2018-Jun-09 01:00N 33°21' W 118°20'0 0.0
2018-Jun-08 23:36N 33°21' W 118°20'0 0.0
2018-Jun-08 23:17N 33°21' W 118°20'0 0.2
2018-Jun-08 22:55N 33°21' W 118°20'0 0.1
2018-Jun-08 22:19N 33°21' W 118°20'0 0.0
2018-Jun-08 21:59N 33°21' W 118°20'0 0.0
2018-Jun-08 20:41N 33°21' W 118°20'0 0.2
2018-Jun-08 20:27N 33°21' W 118°20'0 0.0
2018-Jun-08 20:00N 33°21' W 118°20'0 0.1
2018-Jun-08 19:30N 33°21' W 118°20'0 0.1
2018-Jun-08 19:00N 33°21' W 118°20'0 0.0
2018-Jun-08 18:25N 33°21' W 118°20'  

Dump ship's entire track history